Time;durP1;ratioP1;P1;durP2;ratioP2;P2;SDS_P1;SDS_P2;PMS_P1;PMS_P2;Temp;Humidity;BMP_temperature;BMP_pressure;BME280_temperature;BME280_humidity;BME280_pressure;Samples;Min_cycle;Max_cycle;Signal;HPM_P1;HPM_P2
2021/09/09 00:00:58;;;;;;;16.27;12.80;;;;;;;;;;5034686;28;20421;-63
2021/09/09 00:03:24;;;;;;;14.93;12.60;;;;;;;;;;5035221;28;20411;-64
2021/09/09 00:05:50;;;;;;;14.97;11.60;;;;;;;;;;5032998;28;20447;-63
2021/09/09 00:08:16;;;;;;;16.83;13.37;;;;;;;;;;5035622;28;20445;-63
2021/09/09 00:10:42;;;;;;;16.53;11.93;;;;;;;;;;5034239;28;20433;-63
2021/09/09 00:13:08;;;;;;;16.10;12.23;;;;;;;;;;5034187;28;20820;-63
2021/09/09 00:15:34;;;;;;;16.80;12.60;;;;;;;;;;5034165;28;20938;-63
2021/09/09 00:18:00;;;;;;;14.43;12.87;;;;;;;;;;5035138;28;20410;-63
2021/09/09 00:20:26;;;;;;;13.80;11.80;;;;;;;;;;5033890;28;20497;-63
2021/09/09 00:22:52;;;;;;;18.07;13.77;;;;;;;;;;5035262;28;20830;-63
2021/09/09 00:25:18;;;;;;;16.80;13.23;;;;;;;;;;5034294;28;21081;-64
2021/09/09 00:27:44;;;;;;;20.13;12.10;;;;;;;;;;5032997;28;20514;-63
2021/09/09 00:30:10;;;;;;;17.43;14.17;;;;;;;;;;5031856;28;20517;-63
2021/09/09 00:32:36;;;;;;;19.53;13.67;;;;;;;;;;5016063;28;20514;-63
2021/09/09 00:35:02;;;;;;;17.73;12.43;;;;;;;;;;5015150;28;20451;-64
2021/09/09 00:37:28;;;;;;;16.57;13.43;;;;;;;;;;5035033;28;20411;-63
2021/09/09 00:39:54;;;;;;;16.20;14.07;;;;;;;;;;5034067;28;20403;-64
2021/09/09 00:42:21;;;;;;;17.90;13.50;;;;;;;;;;5034557;28;20407;-64
2021/09/09 00:44:47;;;;;;;17.03;13.47;;;;;;;;;;5034752;28;20468;-64
2021/09/09 00:47:13;;;;;;;17.87;13.70;;;;;;;;;;5033885;28;20433;-64
2021/09/09 00:49:40;;;;;;;18.27;13.07;;;;;;;;;;5034702;28;20489;-63
2021/09/09 00:52:07;;;;;;;15.77;13.30;;;;;;;;;;5033236;28;20506;-64
2021/09/09 00:54:33;;;;;;;18.20;13.40;;;;;;;;;;5033361;28;21001;-64
2021/09/09 00:56:59;;;;;;;20.93;14.57;;;;;;;;;;5033199;28;20435;-64
2021/09/09 00:59:26;;;;;;;22.30;14.47;;;;;;;;;;5034211;28;20426;-64
2021/09/09 01:01:52;;;;;;;16.03;12.70;;;;;;;;;;5033168;28;20454;-63
2021/09/09 01:04:20;;;;;;;20.87;14.37;;;;;;;;;;5029938;28;20966;-64
2021/09/09 01:06:46;;;;;;;18.60;14.57;;;;;;;;;;5025588;28;20426;-64
2021/09/09 01:09:12;;;;;;;17.97;14.80;;;;;;;;;;5034159;28;20411;-64
2021/09/09 01:11:38;;;;;;;17.30;13.73;;;;;;;;;;5033379;28;20514;-64
2021/09/09 01:14:08;;;;;;;17.20;14.30;;;;;;;;;;5034018;28;20458;-64
2021/09/09 01:16:35;;;;;;;18.83;14.50;;;;;;;;;;5033296;28;20518;-63
2021/09/09 01:19:01;;;;;;;19.83;14.40;;;;;;;;;;5034142;28;20418;-63
2021/09/09 01:21:27;;;;;;;19.97;16.53;;;;;;;;;;5032990;28;20569;-64
2021/09/09 01:23:57;;;;;;;17.73;13.57;;;;;;;;;;5033923;28;20434;-64
2021/09/09 01:26:24;;;;;;;18.77;13.50;;;;;;;;;;5032858;28;20415;-65
2021/09/09 01:28:51;;;;;;;20.13;16.07;;;;;;;;;;5034038;28;20751;-64
2021/09/09 01:31:17;;;;;;;17.53;13.30;;;;;;;;;;5031178;28;20434;-65
2021/09/09 01:33:43;;;;;;;19.80;15.50;;;;;;;;;;5033540;28;20454;-65
2021/09/09 01:36:10;;;;;;;16.73;13.27;;;;;;;;;;5032817;28;20453;-64
2021/09/09 01:38:36;;;;;;;18.97;14.40;;;;;;;;;;5032767;28;20431;-64
2021/09/09 01:41:03;;;;;;;18.27;14.67;;;;;;;;;;5032935;28;20434;-63
2021/09/09 01:43:29;;;;;;;16.20;13.43;;;;;;;;;;5033930;28;20399;-64
2021/09/09 01:45:55;;;;;;;13.90;12.10;;;;;;;;;;5030082;28;20541;-64
2021/09/09 01:48:21;;;;;;;17.77;13.00;;;;;;;;;;5013871;28;20432;-63
2021/09/09 01:50:47;;;;;;;15.60;12.87;;;;;;;;;;5014638;28;20439;-63
2021/09/09 01:53:13;;;;;;;15.40;11.80;;;;;;;;;;5033385;28;20457;-64
2021/09/09 01:55:39;;;;;;;18.67;13.20;;;;;;;;;;5032170;28;20434;-64
2021/09/09 01:58:05;;;;;;;17.43;11.70;;;;;;;;;;5033458;28;20411;-64
2021/09/09 02:00:31;;;;;;;17.00;12.67;;;;;;;;;;5033339;28;20896;-63
2021/09/09 02:02:57;;;;;;;16.83;12.53;;;;;;;;;;5032309;28;20431;-63
2021/09/09 02:05:23;;;;;;;19.50;12.77;;;;;;;;;;5033054;28;20438;-64
2021/09/09 02:07:49;;;;;;;16.77;11.47;;;;;;;;;;5032049;28;20430;-64
2021/09/09 02:10:19;;;;;;;18.07;13.27;;;;;;;;;;5031713;28;20457;-65
2021/09/09 02:12:45;;;;;;;23.10;14.60;;;;;;;;;;5028381;28;20512;-64
2021/09/09 02:15:11;;;;;;;19.90;14.30;;;;;;;;;;5032766;28;20475;-64
2021/09/09 02:17:37;;;;;;;22.80;14.43;;;;;;;;;;5031092;28;20799;-64
2021/09/09 02:20:04;;;;;;;26.43;15.40;;;;;;;;;;5032823;28;20407;-65
2021/09/09 02:22:30;;;;;;;20.53;14.30;;;;;;;;;;5031962;28;20461;-64
2021/09/09 02:24:56;;;;;;;25.00;14.83;;;;;;;;;;5032852;28;20430;-64
2021/09/09 02:27:22;;;;;;;18.77;12.97;;;;;;;;;;5031743;28;20972;-64
2021/09/09 02:29:48;;;;;;;18.00;13.50;;;;;;;;;;5032724;28;20409;-64
2021/09/09 02:32:14;;;;;;;18.40;13.20;;;;;;;;;;5031655;28;20430;-64
2021/09/09 02:34:40;;;;;;;17.73;12.80;;;;;;;;;;5026081;28;20471;-64
2021/09/09 02:37:06;;;;;;;20.70;13.37;;;;;;;;;;5026690;28;20505;-64
2021/09/09 02:39:32;;;;;;;18.20;13.10;;;;;;;;;;5032179;28;20407;-64
2021/09/09 02:41:58;;;;;;;18.30;13.13;;;;;;;;;;5031341;28;20778;-64
2021/09/09 02:44:25;;;;;;;19.23;12.00;;;;;;;;;;5032567;28;20441;-64
2021/09/09 02:46:51;;;;;;;16.97;12.73;;;;;;;;;;5031970;28;20449;-64
2021/09/09 02:49:17;;;;;;;16.53;12.30;;;;;;;;;;5031607;28;20513;-64
2021/09/09 02:51:43;;;;;;;14.80;11.70;;;;;;;;;;5031318;28;20505;-64
2021/09/09 02:54:09;;;;;;;15.73;12.03;;;;;;;;;;5032334;28;20477;-65
2021/09/09 02:56:35;;;;;;;15.80;12.07;;;;;;;;;;5031823;28;20403;-64
2021/09/09 02:59:01;;;;;;;13.30;11.30;;;;;;;;;;5032736;28;20474;-64
2021/09/09 03:01:27;;;;;;;16.03;12.53;;;;;;;;;;5032147;28;20839;-64
2021/09/09 03:03:53;;;;;;;15.97;12.00;;;;;;;;;;5032367;28;20442;-64
2021/09/09 03:06:19;;;;;;;13.57;10.80;;;;;;;;;;5032682;28;20891;-64
2021/09/09 03:08:45;;;;;;;15.20;12.23;;;;;;;;;;5031870;28;20450;-64
2021/09/09 03:11:11;;;;;;;15.07;11.80;;;;;;;;;;5032544;28;20884;-65
2021/09/09 03:13:37;;;;;;;16.50;12.10;;;;;;;;;;5031443;28;20465;-64
2021/09/09 03:16:03;;;;;;;15.70;11.57;;;;;;;;;;5031702;28;20411;-64
2021/09/09 03:18:29;;;;;;;16.80;10.83;;;;;;;;;;5031669;28;20426;-64
2021/09/09 03:20:56;;;;;;;13.37;10.73;;;;;;;;;;5032593;28;20769;-64
2021/09/09 03:23:22;;;;;;;11.63;10.30;;;;;;;;;;5013793;28;20442;-64
2021/09/09 03:25:48;;;;;;;11.47;10.13;;;;;;;;;;5012612;28;20481;-64
2021/09/09 03:28:14;;;;;;;20.13;11.27;;;;;;;;;;5020262;28;20432;-64
2021/09/09 03:30:40;;;;;;;17.97;12.07;;;;;;;;;;5035595;28;20410;-63
2021/09/09 03:33:06;;;;;;;13.07;11.60;;;;;;;;;;5026363;28;20474;-63
2021/09/09 03:35:32;;;;;;;14.47;11.90;;;;;;;;;;5016056;28;20439;-64
2021/09/09 03:37:58;;;;;;;15.33;11.40;;;;;;;;;;5026405;28;20939;-64
2021/09/09 03:40:24;;;;;;;14.17;11.63;;;;;;;;;;5018083;28;20899;-64
2021/09/09 03:42:50;;;;;;;12.17;9.53;;;;;;;;;;5034614;28;20446;-63
2021/09/09 03:45:16;;;;;;;15.53;10.87;;;;;;;;;;5036065;28;20422;-63
2021/09/09 03:47:42;;;;;;;15.40;10.40;;;;;;;;;;5033851;28;20426;-64
2021/09/09 03:50:08;;;;;;;12.10;10.00;;;;;;;;;;5036029;28;20422;-64
2021/09/09 03:52:34;;;;;;;22.67;11.60;;;;;;;;;;5033600;28;20520;-64
2021/09/09 03:55:01;;;;;;;13.33;10.93;;;;;;;;;;5035574;28;20419;-64
2021/09/09 03:57:26;;;;;;;16.37;10.80;;;;;;;;;;5033969;28;20754;-64
2021/09/09 03:59:52;;;;;;;15.20;11.50;;;;;;;;;;5017826;28;20417;-63
2021/09/09 04:02:19;;;;;;;15.43;11.53;;;;;;;;;;5034583;28;20418;-63
2021/09/09 04:04:45;;;;;;;15.33;10.93;;;;;;;;;;5035877;28;20427;-63
2021/09/09 04:07:11;;;;;;;15.40;11.43;;;;;;;;;;5034522;28;20449;-63
2021/09/09 04:09:37;;;;;;;13.43;11.33;;;;;;;;;;5035552;28;20406;-63
2021/09/09 04:12:06;;;;;;;18.40;11.27;;;;;;;;;;5034383;28;20422;-63
2021/09/09 04:14:33;;;;;;;17.33;13.00;;;;;;;;;;5035088;28;20431;-63
2021/09/09 04:16:59;;;;;;;17.70;11.40;;;;;;;;;;5034297;28;20399;-63
2021/09/09 04:19:25;;;;;;;14.47;10.60;;;;;;;;;;5035389;28;20433;-63
2021/09/09 04:21:52;;;;;;;17.70;10.40;;;;;;;;;;5035221;28;20607;-63
2021/09/09 04:24:20;;;;;;;14.07;10.37;;;;;;;;;;5034108;28;20523;-63
2021/09/09 04:26:46;;;;;;;13.53;10.73;;;;;;;;;;5035203;28;20411;-63
2021/09/09 04:29:12;;;;;;;13.30;9.63;;;;;;;;;;5034319;28;20435;-63
2021/09/09 04:31:38;;;;;;;14.73;10.53;;;;;;;;;;5032851;28;20453;-63
2021/09/09 04:34:04;;;;;;;13.80;9.90;;;;;;;;;;5034779;28;20462;-65
2021/09/09 04:36:31;;;;;;;13.83;10.57;;;;;;;;;;5034059;28;20954;-64
2021/09/09 04:38:57;;;;;;;15.00;11.10;;;;;;;;;;5033866;28;20411;-64
2021/09/09 04:41:23;;;;;;;13.70;10.93;;;;;;;;;;5033922;28;20429;-63
2021/09/09 04:43:49;;;;;;;15.87;11.50;;;;;;;;;;5034545;28;20761;-63
2021/09/09 04:46:15;;;;;;;13.70;10.97;;;;;;;;;;5033616;28;20430;-64
2021/09/09 04:48:41;;;;;;;14.03;10.10;;;;;;;;;;5035000;28;20403;-63
2021/09/09 04:51:07;;;;;;;14.87;10.53;;;;;;;;;;5033479;28;20442;-63
2021/09/09 04:53:33;;;;;;;14.27;9.43;;;;;;;;;;5034817;28;20450;-63
2021/09/09 04:55:59;;;;;;;14.97;11.30;;;;;;;;;;5026655;28;20423;-62
2021/09/09 04:58:27;;;;;;;18.27;11.83;;;;;;;;;;5015082;28;20408;-63
2021/09/09 05:00:53;;;;;;;16.60;12.40;;;;;;;;;;5022384;28;20497;-62
2021/09/09 05:03:19;;;;;;;14.93;10.60;;;;;;;;;;5033131;28;20879;-64
2021/09/09 05:05:45;;;;;;;17.00;10.50;;;;;;;;;;5032510;28;20447;-63
2021/09/09 05:08:11;;;;;;;14.70;10.97;;;;;;;;;;5034381;28;20456;-63
2021/09/09 05:10:37;;;;;;;12.93;10.60;;;;;;;;;;5033580;28;20462;-63
2021/09/09 05:13:03;;;;;;;13.87;9.47;;;;;;;;;;5034463;28;20813;-64
2021/09/09 05:15:29;;;;;;;14.47;9.50;;;;;;;;;;5031169;28;20451;-63
2021/09/09 05:17:55;;;;;;;16.33;11.37;;;;;;;;;;5030407;28;20410;-65
2021/09/09 05:20:21;;;;;;;12.53;10.13;;;;;;;;;;5033091;28;20903;-63
2021/09/09 05:22:47;;;;;;;12.17;9.53;;;;;;;;;;5021174;28;20427;-65
2021/09/09 05:25:13;;;;;;;16.07;11.03;;;;;;;;;;5031628;28;20443;-62
2021/09/09 05:27:39;;;;;;;17.13;10.70;;;;;;;;;;5033640;28;20415;-62
2021/09/09 05:30:06;;;;;;;14.60;9.80;;;;;;;;;;5032973;28;20447;-61
2021/09/09 05:32:33;;;;;;;13.83;10.20;;;;;;;;;;5032622;28;20867;-61
2021/09/09 05:34:59;;;;;;;13.73;9.03;;;;;;;;;;5033005;28;20508;-61
2021/09/09 05:37:25;;;;;;;14.40;9.30;;;;;;;;;;5030180;28;21529;-61
2021/09/09 05:39:51;;;;;;;12.33;9.40;;;;;;;;;;5032810;28;20415;-61
2021/09/09 05:42:17;;;;;;;13.03;9.63;;;;;;;;;;5032500;28;20938;-61
2021/09/09 05:44:43;;;;;;;12.23;10.00;;;;;;;;;;5033328;28;20442;-59
2021/09/09 05:47:09;;;;;;;13.27;9.33;;;;;;;;;;5031855;28;20423;-64
2021/09/09 05:49:39;;;;;;;9.63;8.53;;;;;;;;;;5032588;28;20422;-60
2021/09/09 05:52:05;;;;;;;12.97;8.67;;;;;;;;;;5032589;28;20521;-64
2021/09/09 05:54:32;;;;;;;12.77;9.10;;;;;;;;;;5033391;28;20508;-65
2021/09/09 05:56:58;;;;;;;9.67;8.57;;;;;;;;;;5032634;28;20930;-64
2021/09/09 05:59:24;;;;;;;12.30;8.83;;;;;;;;;;5032760;28;20491;-62
2021/09/09 06:01:50;;;;;;;10.30;8.40;;;;;;;;;;5033964;23;20499;-81
2021/09/09 06:04:20;;;;;;;14.97;9.53;;;;;;;;;;5023645;28;20438;-83
2021/09/09 06:06:46;;;;;;;13.60;9.83;;;;;;;;;;5023676;28;20434;-82
2021/09/09 06:09:12;;;;;;;14.57;9.53;;;;;;;;;;5023766;28;22396;-82
2021/09/09 06:11:38;;;;;;;13.77;8.80;;;;;;;;;;5021193;28;20462;-81
2021/09/09 06:14:05;;;;;;;10.47;8.13;;;;;;;;;;5003804;28;20535;-82
2021/09/09 06:16:31;;;;;;;11.20;9.30;;;;;;;;;;5021190;28;20501;-81
2021/09/09 06:18:57;;;;;;;11.50;8.40;;;;;;;;;;5022174;28;20435;-81
2021/09/09 06:21:24;;;;;;;37.17;10.57;;;;;;;;;;5002734;28;20430;-81
2021/09/09 06:23:50;;;;;;;17.07;8.83;;;;;;;;;;5019573;28;20483;-80
2021/09/09 06:26:16;;;;;;;12.63;9.20;;;;;;;;;;5022477;28;20459;-82
2021/09/09 06:28:42;;;;;;;10.37;8.17;;;;;;;;;;5026939;28;20415;-83
2021/09/09 06:31:08;;;;;;;11.37;8.73;;;;;;;;;;5005417;28;20426;-83
2021/09/09 06:33:34;;;;;;;9.80;7.60;;;;;;;;;;5020309;28;20462;-83
2021/09/09 06:36:00;;;;;;;10.67;8.23;;;;;;;;;;5003490;28;20429;-83
2021/09/09 06:38:26;;;;;;;8.90;6.90;;;;;;;;;;5013266;28;20402;-83
2021/09/09 06:40:52;;;;;;;8.83;7.03;;;;;;;;;;5027109;28;20407;-83
2021/09/09 06:43:18;;;;;;;9.20;7.30;;;;;;;;;;5022390;28;20454;-83
2021/09/09 06:45:44;;;;;;;7.53;6.40;;;;;;;;;;5020672;28;20439;-83
2021/09/09 06:48:10;;;;;;;8.90;6.80;;;;;;;;;;5003266;28;20447;-83
2021/09/09 06:50:36;;;;;;;11.47;7.97;;;;;;;;;;5007876;28;20419;-82
2021/09/09 06:53:03;;;;;;;12.50;7.60;;;;;;;;;;5006005;28;20454;-83
2021/09/09 06:55:29;;;;;;;14.10;7.60;;;;;;;;;;5023250;28;20846;-82
2021/09/09 06:57:55;;;;;;;9.37;7.10;;;;;;;;;;5016449;28;20442;-79
2021/09/09 07:00:21;;;;;;;10.33;6.93;;;;;;;;;;5008357;28;20463;-81
2021/09/09 07:02:47;;;;;;;10.73;8.23;;;;;;;;;;5015179;28;20555;-80
2021/09/09 07:05:13;;;;;;;13.37;7.40;;;;;;;;;;5015112;28;20558;-80
2021/09/09 07:07:39;;;;;;;9.40;7.00;;;;;;;;;;4987099;28;20513;-82
2021/09/09 07:10:06;;;;;;;15.87;7.37;;;;;;;;;;5008536;28;20447;-80
2021/09/09 07:12:32;;;;;;;8.50;7.00;;;;;;;;;;5022642;28;20463;-82
2021/09/09 07:14:58;;;;;;;8.90;6.40;;;;;;;;;;5024316;28;20432;-82
2021/09/09 07:17:24;;;;;;;7.47;6.57;;;;;;;;;;5023696;28;20791;-83
2021/09/09 07:19:50;;;;;;;8.47;6.80;;;;;;;;;;5021654;28;20466;-79
2021/09/09 07:22:16;;;;;;;9.17;6.60;;;;;;;;;;5023477;28;20428;-81
2021/09/09 07:24:42;;;;;;;9.67;6.60;;;;;;;;;;5027607;28;20419;-81
2021/09/09 07:27:09;;;;;;;9.00;5.93;;;;;;;;;;5025624;28;20423;-81
2021/09/09 07:29:35;;;;;;;14.43;7.33;;;;;;;;;;5013778;28;21062;-81
2021/09/09 07:32:01;;;;;;;11.57;7.83;;;;;;;;;;5010260;28;20530;-81
2021/09/09 07:34:27;;;;;;;7.13;6.10;;;;;;;;;;5024197;28;20463;-81
2021/09/09 07:36:54;;;;;;;9.90;6.87;;;;;;;;;;5011346;28;20439;-80
2021/09/09 07:39:20;;;;;;;9.43;7.67;;;;;;;;;;5015910;28;20452;-81
2021/09/09 07:41:46;;;;;;;8.40;6.57;;;;;;;;;;5024497;28;20435;-81
2021/09/09 07:44:12;;;;;;;10.93;7.47;;;;;;;;;;5021365;28;20445;-81
2021/09/09 07:46:39;;;;;;;8.37;6.73;;;;;;;;;;5005028;28;20453;-81
2021/09/09 07:49:05;;;;;;;7.57;6.20;;;;;;;;;;5002930;28;20842;-80
2021/09/09 07:51:32;;;;;;;10.60;7.30;;;;;;;;;;5004563;28;20427;-81
2021/09/09 07:53:58;;;;;;;9.47;6.83;;;;;;;;;;5002687;28;20466;-79
2021/09/09 07:56:24;;;;;;;10.17;6.70;;;;;;;;;;5020333;28;20431;-80
2021/09/09 07:58:50;;;;;;;7.23;5.80;;;;;;;;;;5024326;28;20439;-81
2021/09/09 08:01:17;;;;;;;7.30;6.10;;;;;;;;;;5003392;28;20463;-81
2021/09/09 08:03:43;;;;;;;10.50;7.07;;;;;;;;;;5002122;28;20432;-81
2021/09/09 08:06:09;;;;;;;6.93;5.90;;;;;;;;;;5004654;28;20428;-82
2021/09/09 08:08:35;;;;;;;7.67;6.43;;;;;;;;;;5009856;28;20503;-81
2021/09/09 08:11:01;;;;;;;8.90;6.30;;;;;;;;;;5021389;28;20495;-81
2021/09/09 08:13:27;;;;;;;9.10;7.00;;;;;;;;;;5023081;28;20479;-81
2021/09/09 08:15:54;;;;;;;8.30;6.80;;;;;;;;;;5021842;28;20497;-81
2021/09/09 08:18:20;;;;;;;8.53;6.30;;;;;;;;;;5015050;28;20428;-81
2021/09/09 08:20:46;;;;;;;9.50;7.30;;;;;;;;;;5019478;28;20534;-81
2021/09/09 08:23:12;;;;;;;8.03;6.20;;;;;;;;;;5002314;28;20439;-81
2021/09/09 08:25:38;;;;;;;7.53;6.47;;;;;;;;;;5005644;28;20436;-80
2021/09/09 08:28:04;;;;;;;7.53;5.47;;;;;;;;;;5011188;28;20835;-82
2021/09/09 08:30:30;;;;;;;7.80;6.23;;;;;;;;;;5022801;28;20489;-80
2021/09/09 08:32:56;;;;;;;8.87;6.10;;;;;;;;;;5008156;28;20835;-80
2021/09/09 08:35:23;;;;;;;12.83;5.47;;;;;;;;;;5021914;28;20455;-82
2021/09/09 08:37:50;;;;;;;7.30;6.07;;;;;;;;;;5008274;28;20436;-82
2021/09/09 08:40:16;;;;;;;6.80;5.73;;;;;;;;;;5017078;28;20443;-82
2021/09/09 08:42:43;;;;;;;9.80;5.90;;;;;;;;;;5029516;28;20435;-82
2021/09/09 08:45:10;;;;;;;7.50;6.50;;;;;;;;;;5024265;28;20427;-82
2021/09/09 08:47:40;;;;;;;7.37;5.80;;;;;;;;;;5007838;28;20473;-83
2021/09/09 08:50:06;;;;;;;9.00;6.60;;;;;;;;;;5013578;28;20534;-82
2021/09/09 08:52:32;;;;;;;7.33;5.87;;;;;;;;;;5009065;28;20538;-80
2021/09/09 08:54:58;;;;;;;9.90;5.63;;;;;;;;;;5021934;28;20423;-83
2021/09/09 08:57:27;;;;;;;8.57;5.87;;;;;;;;;;5007389;28;20427;-84
2021/09/09 08:59:53;;;;;;;7.20;5.83;;;;;;;;;;5010644;28;20438;-82
2021/09/09 09:02:20;;;;;;;7.57;5.40;;;;;;;;;;5023164;28;20443;-82
2021/09/09 09:05:00;;;;;;;8.27;5.73;;;;;;;;;;5015723;28;20451;-81
2021/09/09 09:07:30;;;;;;;9.37;6.07;;;;;;;;;;5021856;28;20672;-80
2021/09/09 09:10:03;;;;;;;6.40;5.40;;;;;;;;;;5004614;28;21003;-81
2021/09/09 09:12:39;;;;;;;7.07;5.93;;;;;;;;;;5004547;28;20436;-80
2021/09/09 09:15:25;;;;;;;6.43;5.20;;;;;;;;;;5008791;28;20457;-81
2021/09/09 09:18:04;;;;;;;5.93;4.93;;;;;;;;;;5014950;28;20465;-83
2021/09/09 09:20:38;;;;;;;6.53;5.80;;;;;;;;;;5004623;28;20455;-82
2021/09/09 09:23:10;;;;;;;6.93;5.87;;;;;;;;;;5021573;28;20435;-79
2021/09/09 09:25:46;;;;;;;7.80;5.60;;;;;;;;;;5025501;28;20806;-82
2021/09/09 09:28:13;;;;;;;7.30;5.77;;;;;;;;;;5005211;28;20435;-79
2021/09/09 09:30:39;;;;;;;7.13;5.60;;;;;;;;;;5018915;28;20648;-80
2021/09/09 09:33:05;;;;;;;6.27;5.10;;;;;;;;;;5019245;28;20451;-82
2021/09/09 09:35:31;;;;;;;7.70;5.73;;;;;;;;;;5019155;28;20416;-80
2021/09/09 09:37:59;;;;;;;6.23;5.23;;;;;;;;;;5026413;28;20418;-83
2021/09/09 09:40:33;;;;;;;9.20;5.20;;;;;;;;;;5009563;28;20443;-83
2021/09/09 09:43:05;;;;;;;9.37;5.60;;;;;;;;;;5023436;28;20434;-79
2021/09/09 09:45:31;;;;;;;8.27;5.23;;;;;;;;;;5015155;28;20511;-80
2021/09/09 09:47:58;;;;;;;6.73;6.03;;;;;;;;;;5011202;28;20431;-80
2021/09/09 09:50:24;;;;;;;6.57;5.30;;;;;;;;;;5017270;28;20447;-81
2021/09/09 09:52:51;;;;;;;6.17;5.20;;;;;;;;;;5031161;28;20470;-79
2021/09/09 09:55:17;;;;;;;6.73;5.27;;;;;;;;;;5019600;28;20439;-79
2021/09/09 09:57:53;;;;;;;7.70;5.33;;;;;;;;;;5014739;28;20537;-79
2021/09/09 10:00:20;;;;;;;9.80;6.07;;;;;;;;;;5013392;28;20477;-80
2021/09/09 10:02:47;;;;;;;8.03;5.60;;;;;;;;;;5016459;28;20442;-79
2021/09/09 10:05:13;;;;;;;7.07;6.00;;;;;;;;;;5007419;28;20427;-79
2021/09/09 10:07:39;;;;;;;9.27;5.80;;;;;;;;;;5010812;28;20431;-81
2021/09/09 10:10:05;;;;;;;9.70;5.50;;;;;;;;;;5017103;28;20455;-82
2021/09/09 10:12:32;;;;;;;7.90;6.13;;;;;;;;;;5035214;28;20426;-83
2021/09/09 10:15:00;;;;;;;7.90;6.43;;;;;;;;;;5025259;28;20423;-83
2021/09/09 10:17:28;;;;;;;7.93;6.13;;;;;;;;;;4989885;28;20459;-82
2021/09/09 10:19:56;;;;;;;6.40;5.40;;;;;;;;;;5006380;28;20462;-82
2021/09/09 10:22:23;;;;;;;6.10;5.40;;;;;;;;;;5007484;28;20425;-83
2021/09/09 10:25:12;;;;;;;8.70;5.60;;;;;;;;;;4999205;28;20457;-83
2021/09/09 10:27:42;;;;;;;6.27;4.87;;;;;;;;;;5002252;28;20529;-82
2021/09/09 10:30:16;;;;;;;9.43;6.03;;;;;;;;;;5004038;28;20451;-82
2021/09/09 10:32:56;;;;;;;13.50;5.20;;;;;;;;;;4988625;28;20490;-83
2021/09/09 10:35:29;;;;;;;11.40;6.20;;;;;;;;;;5001361;28;20415;-83
2021/09/09 10:37:57;;;;;;;7.37;6.10;;;;;;;;;;5024454;28;20438;-83
2021/09/09 10:40:29;;;;;;;5.90;5.30;;;;;;;;;;5008064;28;20432;-83
2021/09/09 10:42:56;;;;;;;8.50;5.30;;;;;;;;;;5002254;28;20435;-83
2021/09/09 10:45:34;;;;;;;9.63;5.40;;;;;;;;;;5023071;28;20486;-82
2021/09/09 10:48:03;;;;;;;8.97;5.30;;;;;;;;;;5024939;28;20451;-82
2021/09/09 10:50:30;;;;;;;6.67;5.40;;;;;;;;;;5018813;28;20539;-83
2021/09/09 10:53:05;;;;;;;6.00;5.40;;;;;;;;;;5007083;28;21005;-83
2021/09/09 10:55:33;;;;;;;6.00;5.10;;;;;;;;;;5005239;28;20434;-82
2021/09/09 10:58:18;;;;;;;7.90;5.90;;;;;;;;;;5021044;28;20439;-82
2021/09/09 11:00:53;;;;;;;6.37;5.57;;;;;;;;;;5023420;28;20442;-82
2021/09/09 11:03:37;;;;;;;9.57;5.93;;;;;;;;;;5016374;28;20447;-83
2021/09/09 11:06:07;;;;;;;6.57;5.20;;;;;;;;;;5006405;28;20454;-84
2021/09/09 11:08:33;;;;;;;5.60;4.83;;;;;;;;;;5020862;28;20469;-82
2021/09/09 11:10:59;;;;;;;8.40;6.00;;;;;;;;;;5001455;28;20446;-80
2021/09/09 11:13:25;;;;;;;7.97;5.50;;;;;;;;;;5018538;28;20463;-83
2021/09/09 11:15:51;;;;;;;12.33;5.60;;;;;;;;;;5020770;28;20407;-81
2021/09/09 11:18:25;;;;;;;6.50;5.57;;;;;;;;;;4982835;28;20431;-80
2021/09/09 11:21:00;;;;;;;6.50;5.60;;;;;;;;;;5012378;28;20438;-80
2021/09/09 11:23:26;;;;;;;7.17;5.50;;;;;;;;;;5000984;28;20561;-81
2021/09/09 11:25:52;;;;;;;6.80;5.97;;;;;;;;;;5002321;28;20837;-81
2021/09/09 11:28:19;;;;;;;7.10;5.70;;;;;;;;;;5000739;28;20438;-83
2021/09/09 11:31:02;;;;;;;7.37;5.97;;;;;;;;;;5001824;28;20515;-83
2021/09/09 11:33:29;;;;;;;7.13;5.13;;;;;;;;;;5017223;28;20862;-84
2021/09/09 11:36:02;;;;;;;6.47;5.17;;;;;;;;;;5004568;28;20483;-83
2021/09/09 11:38:32;;;;;;;7.77;6.10;;;;;;;;;;5002838;28;20767;-83
2021/09/09 11:41:12;;;;;;;6.13;4.87;;;;;;;;;;5002113;28;20580;-82
2021/09/09 11:43:39;;;;;;;9.73;4.90;;;;;;;;;;5017717;28;20958;-84
2021/09/09 11:46:05;;;;;;;10.13;6.33;;;;;;;;;;5001281;28;20910;-83
2021/09/09 11:48:31;;;;;;;8.30;5.80;;;;;;;;;;4999305;28;20439;-84
2021/09/09 11:50:57;;;;;;;5.30;4.80;;;;;;;;;;5012988;28;20420;-84
2021/09/09 11:53:24;;;;;;;7.20;5.97;;;;;;;;;;5014749;28;20460;-83
2021/09/09 11:55:51;;;;;;;7.20;5.10;;;;;;;;;;5017778;28;20438;-83
2021/09/09 11:58:36;;;;;;;7.37;5.30;;;;;;;;;;5017031;28;20860;-83
2021/09/09 12:01:03;;;;;;;6.97;5.63;;;;;;;;;;5000038;28;20808;-83
2021/09/09 12:03:30;;;;;;;5.53;4.80;;;;;;;;;;5016460;28;20458;-81
2021/09/09 12:05:56;;;;;;;6.90;5.57;;;;;;;;;;5020511;28;20438;-81
2021/09/09 12:08:22;;;;;;;6.80;5.43;;;;;;;;;;5018887;28;20533;-81
2021/09/09 12:10:48;;;;;;;6.47;5.23;;;;;;;;;;5000930;28;20439;-82
2021/09/09 12:13:29;;;;;;;12.33;5.60;;;;;;;;;;5008787;28;20799;-83
2021/09/09 12:15:55;;;;;;;4.80;4.30;;;;;;;;;;5004839;28;20443;-83
2021/09/09 12:18:30;;;;;;;7.30;5.30;;;;;;;;;;5009083;28;20779;-83
2021/09/09 12:21:07;;;;;;;7.33;5.47;;;;;;;;;;5009770;28;20435;-83
2021/09/09 12:23:33;;;;;;;10.47;4.30;;;;;;;;;;5004717;28;20439;-82
2021/09/09 12:26:14;;;;;;;8.83;4.33;;;;;;;;;;5002930;28;20454;-80
2021/09/09 12:28:40;;;;;;;6.07;5.10;;;;;;;;;;5015226;28;20466;-79
2021/09/09 12:31:06;;;;;;;5.43;4.53;;;;;;;;;;5007041;28;20428;-79
2021/09/09 12:33:38;;;;;;;9.27;5.00;;;;;;;;;;5018261;28;20983;-81
2021/09/09 12:36:10;;;;;;;6.50;4.73;;;;;;;;;;5002540;28;20423;-81
2021/09/09 12:38:42;;;;;;;6.33;5.33;;;;;;;;;;4998773;28;20470;-82
2021/09/09 12:41:09;;;;;;;6.47;4.87;;;;;;;;;;5007517;28;20415;-81
2021/09/09 12:43:38;;;;;;;8.17;4.73;;;;;;;;;;5006779;28;20463;-80
2021/09/09 12:46:04;;;;;;;5.63;4.47;;;;;;;;;;5003472;28;20446;-81
2021/09/09 12:48:31;;;;;;;5.40;4.10;;;;;;;;;;5001438;28;20436;-80
2021/09/09 12:50:59;;;;;;;7.83;4.00;;;;;;;;;;5004085;28;20431;-82
2021/09/09 12:53:43;;;;;;;8.73;4.80;;;;;;;;;;5012679;28;20448;-81
2021/09/09 12:56:10;;;;;;;7.23;4.73;;;;;;;;;;5022007;28;20446;-81
2021/09/09 12:58:36;;;;;;;5.00;4.03;;;;;;;;;;5017832;28;20435;-81
2021/09/09 13:01:03;;;;;;;5.10;3.93;;;;;;;;;;5019916;28;20439;-82
2021/09/09 13:03:31;;;;;;;5.33;3.87;;;;;;;;;;5003061;28;20842;-80
2021/09/09 13:05:58;;;;;;;5.00;4.03;;;;;;;;;;4994436;28;20456;-79
2021/09/09 13:08:24;;;;;;;3.70;3.30;;;;;;;;;;5003939;28;20434;-80
2021/09/09 13:10:50;;;;;;;4.90;3.77;;;;;;;;;;5000816;28;20447;-80
2021/09/09 13:13:17;;;;;;;5.93;3.73;;;;;;;;;;5000751;28;20467;-78
2021/09/09 13:15:43;;;;;;;4.27;3.70;;;;;;;;;;5016529;28;20928;-79
2021/09/09 13:18:09;;;;;;;4.60;4.10;;;;;;;;;;5002398;28;21019;-81
2021/09/09 13:20:36;;;;;;;5.80;4.40;;;;;;;;;;5014850;28;20455;-79
2021/09/09 13:23:05;;;;;;;5.53;4.33;;;;;;;;;;5015526;28;20530;-80
2021/09/09 13:25:31;;;;;;;6.77;4.50;;;;;;;;;;5016172;28;20454;-78
2021/09/09 13:27:58;;;;;;;5.23;4.20;;;;;;;;;;5003544;28;20431;-78
2021/09/09 13:30:24;;;;;;;5.73;4.53;;;;;;;;;;4995281;28;20534;-78
2021/09/09 13:32:50;;;;;;;5.70;4.23;;;;;;;;;;5004089;28;20467;-78
2021/09/09 13:35:17;;;;;;;5.20;4.30;;;;;;;;;;5000573;28;20439;-79
2021/09/09 13:37:43;;;;;;;6.53;4.27;;;;;;;;;;4997258;28;20434;-78
2021/09/09 13:40:09;;;;;;;6.13;4.10;;;;;;;;;;5001297;28;20827;-80
2021/09/09 13:42:36;;;;;;;6.50;4.37;;;;;;;;;;5004637;28;21046;-80
2021/09/09 13:45:02;;;;;;;7.77;4.60;;;;;;;;;;5020447;28;20435;-80
2021/09/09 13:47:28;;;;;;;5.73;4.53;;;;;;;;;;5002885;28;20423;-81
2021/09/09 13:49:54;;;;;;;4.87;3.77;;;;;;;;;;5003427;28;21018;-79
2021/09/09 13:52:21;;;;;;;6.90;3.97;;;;;;;;;;5021164;28;20428;-78
2021/09/09 13:54:47;;;;;;;5.43;3.77;;;;;;;;;;5001778;28;20456;-81
2021/09/09 13:57:13;;;;;;;4.90;4.23;;;;;;;;;;5017649;28;20841;-81
2021/09/09 13:59:39;;;;;;;9.03;4.30;;;;;;;;;;5016345;28;20533;-79
2021/09/09 14:02:05;;;;;;;5.90;4.40;;;;;;;;;;5016121;28;20443;-80
2021/09/09 14:04:31;;;;;;;6.90;4.20;;;;;;;;;;5013429;28;20430;-78
2021/09/09 14:06:57;;;;;;;10.23;3.77;;;;;;;;;;5012740;28;20431;-80
2021/09/09 14:09:24;;;;;;;5.43;4.17;;;;;;;;;;5005488;28;20972;-78
2021/09/09 14:11:50;;;;;;;4.80;4.00;;;;;;;;;;5014921;28;20522;-79
2021/09/09 14:14:16;;;;;;;5.13;3.83;;;;;;;;;;5015839;28;20470;-80
2021/09/09 14:16:42;;;;;;;5.33;3.80;;;;;;;;;;4999464;28;20960;-78
2021/09/09 14:19:08;;;;;;;6.97;3.80;;;;;;;;;;5013774;28;20458;-78
2021/09/09 14:21:34;;;;;;;4.50;4.00;;;;;;;;;;5012542;28;20443;-79
2021/09/09 14:24:01;;;;;;;6.80;4.20;;;;;;;;;;5012712;28;20487;-79
2021/09/09 14:26:27;;;;;;;7.90;3.80;;;;;;;;;;5013009;28;20920;-78
2021/09/09 14:28:53;;;;;;;7.80;4.40;;;;;;;;;;5011432;28;21054;-82
2021/09/09 14:31:19;;;;;;;7.80;4.50;;;;;;;;;;5012596;28;20863;-82